CZPC

Pincher Creek Airport

Pincher Creek, , Canada
METAR CZPC 201000Z AUTO 24015KT 9SM BKN250 M01/M08 A2994 RMK SLP175
Observed Flight Rules
Jan-20 @ 10:00 UTC (59 minutes ago) Visual Flight Rules
Wind Visibility Clouds
240° at 15 knots 9 miles
  • Broken at 25,000' AGL
Temperatures Readings
Current -1°C / 30°F
Dewpoint -8°C / 18°F
Humidity 59%
Altimeter 29.94" Hg
Pressure 1017.5 hPa
Elevation 1190
METAR CZPC 201000Z AUTO 24015KT 9SM BKN250 M01/M08 A2994 RMK SLP175
Observed Flight Rules
Jan-20 @ 10:00 UTC
(59 minutes ago)
VFR
Wind Visibility
240° at 15 knots 9 miles
Clouds
  • Broken at 25,000' AGL
Temperature Dewpoint
-1°C / 30°F -8°C / 18°F
Humidity Altimeter Pressure
59% 29.94" Hg 1017.5 hPa